Time;durP1;ratioP1;P1;durP2;ratioP2;P2;SDS_P1;SDS_P2;PMS_P1;PMS_P2;Temp;Humidity;BMP_temperature;BMP_pressure;BME280_temperature;BME280_humidity;BME280_pressure;Samples;Min_cycle;Max_cycle;Signal;HPM_P1;HPM_P2
2021/12/25 00:01:05;;;;;;;10.47;6.73;;;10.20;93.70;;;;;;5026604;28;20518;-72
2021/12/25 00:03:32;;;;;;;13.50;7.23;;;10.30;93.60;;;;;;5008232;28;20428;-71
2021/12/25 00:05:58;;;;;;;10.67;7.33;;;10.30;93.40;;;;;;5038778;28;20415;-71
2021/12/25 00:08:26;;;;;;;11.53;6.57;;;10.30;93.30;;;;;;5039419;28;20434;-71
2021/12/25 00:10:54;;;;;;;13.70;7.50;;;10.30;93.40;;;;;;5040957;28;20439;-72
2021/12/25 00:13:20;;;;;;;11.70;7.00;;;10.30;93.40;;;;;;5041015;28;20474;-71
2021/12/25 00:15:47;;;;;;;11.03;7.10;;;10.40;93.30;;;;;;5031188;28;20475;-71
2021/12/25 00:18:13;;;;;;;12.27;6.90;;;10.40;93.10;;;;;;5034245;28;20419;-71
2021/12/25 00:20:39;;;;;;;11.10;6.83;;;10.30;93.00;;;;;;5034096;28;20932;-71
2021/12/25 00:23:06;;;;;;;10.53;6.83;;;10.30;93.10;;;;;;5045621;28;20419;-71
2021/12/25 00:25:41;;;;;;;11.60;7.37;;;10.30;93.20;;;;;;5029295;28;20188;-71
2021/12/25 00:31:23;;;;;;;14.27;7.80;;;10.30;93.00;;;;;;5042527;28;20438;-71
2021/12/25 00:33:56;;;;;;;12.07;7.50;;;10.30;92.90;;;;;;5033849;28;20897;-70
2021/12/25 00:36:23;;;;;;;10.77;7.83;;;10.20;93.00;;;;;;5045605;28;20435;-71
2021/12/25 00:38:50;;;;;;;10.77;7.00;;;10.10;93.10;;;;;;5043989;28;20419;-73
2021/12/25 00:41:18;;;;;;;10.53;6.70;;;10.10;93.30;;;;;;5044274;28;20447;-73
2021/12/25 00:43:44;;;;;;;8.37;6.10;;;10.10;93.30;;;;;;5038548;28;20483;-70
2021/12/25 00:46:10;;;;;;;13.10;7.03;;;10.10;93.20;;;;;;5033081;28;20411;-71
2021/12/25 00:48:36;;;;;;;10.73;7.13;;;10.10;93.40;;;;;;5038555;28;20416;-74
2021/12/25 00:51:02;;;;;;;10.70;6.33;;;10.10;93.50;;;;;;5035487;28;20451;-72
2021/12/25 00:53:28;;;;;;;14.30;8.30;;;10.10;93.50;;;;;;5009720;28;20714;-73
2021/12/25 00:55:54;;;;;;;11.47;7.90;;;10.00;93.60;;;;;;5049946;28;20620;-71
2021/12/25 00:58:20;;;;;;;14.97;7.30;;;10.00;93.70;;;;;;5035801;28;20185;-72
2021/12/25 01:00:46;;;;;;;12.10;7.17;;;10.10;93.50;;;;;;5047606;28;20627;-73
2021/12/25 01:03:12;;;;;;;14.70;7.60;;;10.10;93.50;;;;;;5022892;28;20473;-71
2021/12/25 01:05:38;;;;;;;13.80;7.20;;;10.10;93.40;;;;;;5045303;28;20184;-71
2021/12/25 01:08:04;;;;;;;10.90;7.17;;;10.10;93.30;;;;;;5046499;28;20780;-72
2021/12/25 01:10:32;;;;;;;11.30;7.67;;;10.10;93.30;;;;;;5031368;28;20457;-73
2021/12/25 01:13:06;;;;;;;13.33;7.50;;;10.00;93.50;;;;;;5014976;28;20427;-72
2021/12/25 01:15:59;;;;;;;11.13;7.40;;;10.10;93.50;;;;;;5038465;28;20545;-72
2021/12/25 01:38:59;;;;;;;12.07;7.13;;;9.90;94.50;;;;;;5046262;28;20200;-72
2021/12/25 01:49:22;;;;;;;12.43;8.10;;;9.80;95.20;;;;;;5041380;28;20430;-71
2021/12/25 01:51:48;;;;;;;12.27;8.10;;;9.90;95.40;;;;;;5036896;28;20898;-72
2021/12/25 01:54:14;;;;;;;13.17;8.37;;;9.80;95.40;;;;;;5032282;28;20212;-71
2021/12/25 01:56:39;;;;;;;15.30;9.20;;;9.80;95.50;;;;;;5041424;28;20208;-72
2021/12/25 01:59:06;;;;;;;16.50;8.70;;;9.80;95.60;;;;;;5040483;28;20210;-71
2021/12/25 02:01:32;;;;;;;13.30;10.10;;;9.80;95.60;;;;;;5043755;28;20288;-73
2021/12/25 02:03:58;;;;;;;18.73;8.97;;;9.60;95.80;;;;;;5039468;28;20910;-71
2021/12/25 02:06:24;;;;;;;11.93;8.00;;;9.60;96.10;;;;;;5039253;28;20428;-71
2021/12/25 02:08:49;;;;;;;18.80;9.23;;;9.60;96.30;;;;;;5053271;28;20488;-72
2021/12/25 02:11:15;;;;;;;15.10;9.00;;;9.50;96.50;;;;;;5037292;28;20451;-71
2021/12/25 02:13:43;;;;;;;12.17;8.60;;;9.50;96.70;;;;;;5047308;28;20191;-71
2021/12/25 02:16:16;;;;;;;14.00;9.10;;;9.50;96.90;;;;;;5044540;28;20656;-70
2021/12/25 02:21:23;;;;;;;18.10;9.23;;;9.50;97.10;;;;;;5043604;28;20617;-71
2021/12/25 02:23:49;;;;;;;15.70;9.80;;;9.30;97.10;;;;;;5025396;28;20430;-71
2021/12/25 02:26:17;;;;;;;15.80;9.63;;;9.30;97.20;;;;;;5027507;28;20437;-70
2021/12/25 02:28:43;;;;;;;13.13;7.90;;;9.30;97.40;;;;;;5049152;28;20931;-71
2021/12/25 02:31:12;;;;;;;14.27;8.17;;;9.30;97.60;;;;;;5052072;28;20446;-71
2021/12/25 02:33:39;;;;;;;13.37;8.20;;;9.30;97.60;;;;;;5039864;28;20451;-71
2021/12/25 02:36:09;;;;;;;11.23;7.63;;;9.30;97.60;;;;;;5045330;28;20832;-71
2021/12/25 02:38:36;;;;;;;14.80;8.63;;;9.30;97.70;;;;;;5033127;28;20427;-70
2021/12/25 02:41:03;;;;;;;17.90;8.77;;;9.30;97.60;;;;;;5025546;28;20454;-71
2021/12/25 02:43:30;;;;;;;15.93;9.40;;;9.30;97.60;;;;;;5047235;28;20922;-70
2021/12/25 02:45:56;;;;;;;13.60;8.70;;;9.30;97.60;;;;;;5043636;28;20796;-73
2021/12/25 02:48:23;;;;;;;10.43;5.93;;;9.30;97.70;;;;;;5047384;28;20417;-71
2021/12/25 02:50:50;;;;;;;9.70;6.00;;;9.30;97.70;;;;;;5040646;28;20450;-71
2021/12/25 02:53:16;;;;;;;13.53;7.07;;;9.30;97.70;;;;;;5037112;28;20443;-71
2021/12/25 02:55:44;;;;;;;13.17;7.50;;;9.30;97.70;;;;;;5052621;28;20843;-71
2021/12/25 02:58:10;;;;;;;12.80;7.40;;;9.30;97.80;;;;;;5032078;28;20435;-72
2021/12/25 03:00:47;;;;;;;13.63;6.93;;;9.40;97.80;;;;;;5052538;28;20450;-71
2021/12/25 03:03:14;;;;;;;11.43;6.60;;;9.40;97.80;;;;;;5033266;28;20436;-72
2021/12/25 03:05:40;;;;;;;9.90;7.37;;;9.40;97.80;;;;;;5028119;28;20522;-71
2021/12/25 03:08:08;;;;;;;11.47;7.60;;;9.50;97.70;;;;;;5041725;28;20434;-71
2021/12/25 03:10:35;;;;;;;12.47;7.00;;;9.40;97.60;;;;;;5027648;28;20805;-72
2021/12/25 03:13:19;;;;;;;12.30;6.30;;;9.40;97.60;;;;;;5049388;28;20766;-72
2021/12/25 03:15:47;;;;;;;9.20;5.60;;;9.40;97.70;;;;;;5040106;28;20467;-72
2021/12/25 03:18:18;;;;;;;14.47;6.77;;;9.30;97.70;;;;;;5046594;28;21221;-72
2021/12/25 03:20:48;;;;;;;12.77;6.50;;;9.30;97.80;;;;;;5035332;28;20475;-71
2021/12/25 03:23:16;;;;;;;11.37;5.90;;;9.40;97.90;;;;;;5042746;28;20435;-71
2021/12/25 03:25:44;;;;;;;9.23;5.87;;;9.50;97.80;;;;;;5028607;28;20495;-71
2021/12/25 03:28:10;;;;;;;11.60;6.23;;;9.50;97.80;;;;;;5047457;28;20485;-73
2021/12/25 03:30:39;;;;;;;13.00;7.33;;;9.40;97.70;;;;;;5048417;28;20448;-72
2021/12/25 03:33:14;;;;;;;15.00;8.30;;;9.40;97.80;;;;;;5037956;28;20523;-72
2021/12/25 03:35:41;;;;;;;14.33;8.33;;;9.40;97.90;;;;;;5043552;28;20463;-71
2021/12/25 03:38:11;;;;;;;14.20;7.40;;;9.30;98.00;;;;;;5051336;28;20416;-72
2021/12/25 03:40:37;;;;;;;10.73;6.57;;;9.30;98.00;;;;;;5025589;28;20459;-71
2021/12/25 03:43:04;;;;;;;15.80;7.47;;;9.30;98.00;;;;;;5047152;28;20724;-71
2021/12/25 03:45:32;;;;;;;11.73;6.80;;;9.30;98.10;;;;;;5028743;28;20499;-72
2021/12/25 03:48:12;;;;;;;11.60;6.40;;;9.40;98.10;;;;;;5050788;28;20990;-72
2021/12/25 03:53:37;;;;;;;8.43;4.80;;;9.20;98.00;;;;;;5042539;28;20613;-72
2021/12/25 03:58:52;;;;;;;10.33;4.40;;;9.10;98.30;;;;;;5040368;28;20410;-71
2021/12/25 04:01:41;;;;;;;6.70;3.87;;;9.00;98.40;;;;;;5049411;28;20449;-71
2021/12/25 04:04:33;;;;;;;7.27;3.80;;;9.00;98.60;;;;;;5037367;28;20415;-72
2021/12/25 04:09:28;;;;;;;6.93;4.20;;;9.00;98.90;;;;;;5047179;28;20428;-72
2021/12/25 04:11:56;;;;;;;6.30;3.90;;;9.00;99.00;;;;;;5030303;28;20895;-71
2021/12/25 04:14:22;;;;;;;8.30;3.70;;;9.00;99.10;;;;;;5039783;28;20832;-71
2021/12/25 04:16:49;;;;;;;7.27;3.67;;;9.00;99.10;;;;;;5033788;28;20972;-72
2021/12/25 04:19:16;;;;;;;5.27;3.10;;;9.00;99.20;;;;;;5041034;28;20428;-72
2021/12/25 04:21:52;;;;;;;5.83;3.30;;;9.10;99.20;;;;;;5047648;28;20464;-73
2021/12/25 04:24:18;;;;;;;4.60;2.83;;;9.10;99.20;;;;;;5013280;28;20486;-72
2021/12/25 04:26:46;;;;;;;4.27;2.37;;;9.20;99.20;;;;;;5046683;28;20443;-70
2021/12/25 04:29:36;;;;;;;5.87;3.00;;;9.10;99.20;;;;;;5045207;28;20446;-72
2021/12/25 04:32:38;;;;;;;4.23;2.80;;;9.20;99.10;;;;;;5043359;28;20452;-71
2021/12/25 05:03:03;;;;;;;2.30;1.57;;;9.30;98.50;;;;;;5033261;28;21311;-70
2021/12/25 05:05:00;;;;;;;1.97;1.40;;;9.20;98.30;;;;;;5016463;28;20415;-70
2021/12/25 05:07:25;;;;;;;3.60;1.90;;;9.20;98.10;;;;;;5034415;28;20411;-71
2021/12/25 05:09:52;;;;;;;2.63;1.80;;;9.20;98.10;;;;;;5039975;28;20828;-70
2021/12/25 05:12:17;;;;;;;2.57;2.10;;;9.30;98.00;;;;;;5037994;28;20240;-71
2021/12/25 05:14:43;;;;;;;3.90;2.13;;;9.30;98.10;;;;;;5034911;28;20514;-71
2021/12/25 05:17:11;;;;;;;4.30;2.70;;;9.30;97.90;;;;;;5043543;28;20242;-70
2021/12/25 05:19:36;;;;;;;3.77;2.47;;;9.30;97.90;;;;;;5038050;28;20570;-70
2021/12/25 05:22:02;;;;;;;3.87;2.33;;;9.30;97.80;;;;;;5039849;28;20457;-70
2021/12/25 05:24:28;;;;;;;3.10;2.33;;;9.30;97.70;;;;;;5042014;28;20285;-72
2021/12/25 05:26:57;;;;;;;5.73;3.07;;;9.30;97.60;;;;;;5021487;28;20426;-72
2021/12/25 05:29:24;;;;;;;5.80;3.40;;;9.20;97.50;;;;;;5024247;28;20188;-71
2021/12/25 05:31:54;;;;;;;6.77;3.70;;;9.20;97.60;;;;;;5036247;28;20463;-72
2021/12/25 05:34:19;;;;;;;5.23;3.33;;;9.20;97.70;;;;;;5020592;28;20459;-71
2021/12/25 05:36:45;;;;;;;7.13;3.70;;;9.10;97.60;;;;;;5035043;28;20428;-71
2021/12/25 05:39:13;;;;;;;8.03;4.30;;;9.20;97.70;;;;;;5041529;28;20203;-72
2021/12/25 05:41:39;;;;;;;5.13;3.40;;;9.10;97.70;;;;;;5029127;28;20475;-72
2021/12/25 05:44:05;;;;;;;5.90;3.33;;;9.00;97.80;;;;;;5038404;28;20906;-71
2021/12/25 05:46:31;;;;;;;5.77;3.47;;;9.00;97.90;;;;;;5033932;28;20693;-71
2021/12/25 05:48:58;;;;;;;5.27;3.60;;;9.00;98.00;;;;;;5048883;28;20418;-71
2021/12/25 05:51:23;;;;;;;7.30;4.10;;;9.00;97.90;;;;;;5035758;28;20224;-70
2021/12/25 05:53:49;;;;;;;5.87;3.53;;;9.00;97.90;;;;;;5030952;28;20427;-71
2021/12/25 05:56:15;;;;;;;7.87;4.47;;;9.00;97.90;;;;;;5027542;28;20249;-70
2021/12/25 05:58:41;;;;;;;8.17;5.03;;;9.00;97.70;;;;;;5032948;28;20416;-70
2021/12/25 06:01:08;;;;;;;8.77;4.90;;;9.00;97.60;;;;;;5046014;28;20443;-71
2021/12/25 06:03:34;;;;;;;7.70;4.90;;;8.90;97.60;;;;;;5030169;28;20425;-72
2021/12/25 06:06:00;;;;;;;10.77;5.67;;;9.00;97.70;;;;;;5040839;28;20426;-71
2021/12/25 06:08:27;;;;;;;13.07;6.43;;;9.00;97.60;;;;;;5046227;28;20433;-71
2021/12/25 06:10:53;;;;;;;11.33;6.47;;;8.90;97.40;;;;;;5045111;28;20529;-72
2021/12/25 06:13:21;;;;;;;11.67;6.20;;;8.90;97.50;;;;;;5044156;28;20458;-71
2021/12/25 06:15:47;;;;;;;11.80;6.80;;;8.80;97.80;;;;;;5034515;28;20499;-71
2021/12/25 06:18:13;;;;;;;9.07;5.33;;;8.80;97.90;;;;;;5051383;28;20499;-71
2021/12/25 06:20:39;;;;;;;11.70;6.57;;;8.80;98.00;;;;;;5040508;28;20817;-71
2021/12/25 06:23:05;;;;;;;11.73;7.00;;;8.80;98.20;;;;;;5043229;28;20184;-71
2021/12/25 06:25:32;;;;;;;14.10;7.57;;;8.80;98.20;;;;;;5042070;28;20918;-72
2021/12/25 06:27:58;;;;;;;11.37;6.70;;;8.80;98.30;;;;;;5041922;28;21119;-71
2021/12/25 06:30:25;;;;;;;9.90;6.17;;;8.80;98.40;;;;;;5038902;28;20483;-72
2021/12/25 06:32:50;;;;;;;15.67;7.10;;;8.80;98.40;;;;;;5032559;28;20424;-72
2021/12/25 06:35:16;;;;;;;16.27;7.33;;;8.80;98.50;;;;;;5035882;28;20468;-72
2021/12/25 06:37:45;;;;;;;12.90;7.70;;;8.80;98.50;;;;;;5026808;28;20283;-73
2021/12/25 06:40:18;;;;;;;11.00;6.00;;;8.80;98.50;;;;;;5032109;28;20870;-73
2021/12/25 06:42:45;;;;;;;14.07;7.10;;;8.90;98.60;;;;;;5041744;28;20484;-71
2021/12/25 06:45:11;;;;;;;13.83;8.50;;;8.90;98.50;;;;;;5030688;28;20535;-71
2021/12/25 06:47:37;;;;;;;13.87;7.77;;;8.90;98.50;;;;;;5048121;28;20438;-71
2021/12/25 06:50:04;;;;;;;13.47;6.80;;;8.90;98.50;;;;;;5020606;28;20444;-70
2021/12/25 06:52:30;;;;;;;11.93;6.70;;;9.00;98.50;;;;;;5015620;28;20905;-71
2021/12/25 06:54:56;;;;;;;11.63;5.87;;;9.10;98.20;;;;;;5038948;28;20458;-71
2021/12/25 06:57:21;;;;;;;11.53;6.10;;;9.10;98.10;;;;;;5048482;28;20477;-70
2021/12/25 06:59:47;;;;;;;14.53;6.37;;;9.10;98.10;;;;;;5041265;28;20273;-72
2021/12/25 07:02:13;;;;;;;10.17;5.70;;;9.10;98.10;;;;;;5046017;28;20521;-71
2021/12/25 07:04:39;;;;;;;9.57;6.47;;;9.20;97.90;;;;;;5027048;28;20184;-71
2021/12/25 07:07:06;;;;;;;10.23;6.00;;;9.20;97.80;;;;;;5045316;28;20212;-72
2021/12/25 07:09:31;;;;;;;10.33;6.40;;;9.20;97.70;;;;;;5040758;28;20933;-71
2021/12/25 07:11:57;;;;;;;9.77;5.00;;;9.30;97.60;;;;;;5035346;28;20212;-71
2021/12/25 07:14:23;;;;;;;12.47;6.50;;;9.30;97.50;;;;;;5040743;28;20209;-72
2021/12/25 07:16:49;;;;;;;9.27;5.10;;;9.30;97.40;;;;;;5049050;28;20184;-72
2021/12/25 07:19:15;;;;;;;9.87;5.70;;;9.30;97.20;;;;;;5036830;28;20201;-71
2021/12/25 07:21:43;;;;;;;12.50;6.00;;;9.30;97.40;;;;;;5045847;28;20627;-71
2021/12/25 07:24:09;;;;;;;10.43;4.90;;;9.40;97.40;;;;;;5023383;28;20522;-71
2021/12/25 07:26:36;;;;;;;11.30;5.87;;;9.30;97.50;;;;;;5026589;28;20453;-71
2021/12/25 07:29:03;;;;;;;11.00;5.80;;;9.30;97.50;;;;;;5036535;28;20434;-71
2021/12/25 07:31:28;;;;;;;9.97;5.10;;;9.30;97.60;;;;;;5043904;28;20969;-71
2021/12/25 07:33:54;;;;;;;9.80;5.70;;;9.30;97.70;;;;;;5032168;28;20525;-72
2021/12/25 07:36:20;;;;;;;11.77;5.60;;;9.30;97.70;;;;;;5040962;28;20185;-71
2021/12/25 07:38:46;;;;;;;14.63;5.93;;;9.30;97.80;;;;;;5042945;28;20436;-71
2021/12/25 07:41:12;;;;;;;11.50;6.33;;;9.30;97.90;;;;;;5044777;28;20207;-72
2021/12/25 07:43:38;;;;;;;10.90;5.67;;;9.20;98.00;;;;;;5038979;28;20194;-73
2021/12/25 07:46:05;;;;;;;11.90;5.60;;;9.20;98.10;;;;;;5015559;28;21294;-72
2021/12/25 07:48:33;;;;;;;8.13;5.37;;;9.20;98.20;;;;;;5045338;28;20442;-72
2021/12/25 07:50:59;;;;;;;9.90;5.60;;;9.30;98.30;;;;;;5035775;28;20451;-72
2021/12/25 07:53:24;;;;;;;10.17;5.13;;;9.40;98.40;;;;;;5035468;28;20494;-72
2021/12/25 07:55:50;;;;;;;8.77;5.20;;;9.40;98.40;;;;;;5048943;28;20274;-72
2021/12/25 07:58:17;;;;;;;8.77;5.37;;;9.50;98.30;;;;;;5038757;28;20185;-72
2021/12/25 08:00:44;;;;;;;9.33;5.53;;;9.40;98.20;;;;;;5029026;28;20235;-72
2021/12/25 08:03:11;;;;;;;10.83;6.00;;;9.30;98.20;;;;;;5030255;28;20425;-73
2021/12/25 08:05:37;;;;;;;10.77;5.80;;;9.30;98.40;;;;;;5041839;28;20538;-71
2021/12/25 08:08:03;;;;;;;11.83;5.83;;;9.30;98.50;;;;;;5037771;28;20433;-73
2021/12/25 08:10:31;;;;;;;11.33;5.37;;;9.20;98.70;;;;;;5047863;28;20276;-72
2021/12/25 08:12:58;;;;;;;8.50;5.80;;;9.30;98.80;;;;;;5031969;28;20415;-71
2021/12/25 08:15:27;;;;;;;10.80;5.63;;;9.30;98.90;;;;;;5043419;28;20878;-72
2021/12/25 08:17:55;;;;;;;9.00;5.13;;;9.30;98.90;;;;;;5034834;28;20418;-71
2021/12/25 08:20:21;;;;;;;9.53;5.30;;;9.30;98.90;;;;;;5036065;28;20476;-72
2021/12/25 08:22:47;;;;;;;13.17;5.87;;;9.30;98.90;;;;;;5043883;28;20416;-72
2021/12/25 08:25:15;;;;;;;10.03;5.17;;;9.30;99.00;;;;;;5043001;28;20418;-72
2021/12/25 08:27:42;;;;;;;6.80;4.70;;;9.30;99.00;;;;;;5043662;28;20566;-72
2021/12/25 08:30:12;;;;;;;10.70;5.53;;;9.30;99.10;;;;;;5047364;28;20462;-70
2021/12/25 08:32:41;;;;;;;8.43;5.13;;;9.30;99.00;;;;;;5038793;28;20451;-71
2021/12/25 08:35:10;;;;;;;10.80;5.80;;;9.30;99.10;;;;;;5041848;28;20467;-71
2021/12/25 08:37:36;;;;;;;10.80;5.77;;;9.30;99.10;;;;;;5045426;28;20492;-70
2021/12/25 08:40:03;;;;;;;8.93;5.80;;;9.30;99.20;;;;;;5019211;28;20435;-72
2021/12/25 08:42:29;;;;;;;7.27;4.83;;;9.40;99.30;;;;;;5014615;28;20205;-71
2021/12/25 08:47:24;;;;;;;16.40;7.80;;;9.50;99.30;;;;;;5043674;28;20434;-71
2021/12/25 08:49:50;;;;;;;11.00;6.10;;;9.60;99.20;;;;;;5041784;28;20454;-71
2021/12/25 08:52:18;;;;;;;11.90;6.13;;;9.70;99.00;;;;;;5040552;28;20451;-72
2021/12/25 08:54:48;;;;;;;8.20;5.47;;;9.80;98.90;;;;;;5043214;28;20574;-71
2021/12/25 08:57:15;;;;;;;10.43;5.80;;;9.90;98.70;;;;;;5043121;28;20453;-71
2021/12/25 08:59:41;;;;;;;10.00;6.43;;;9.90;98.50;;;;;;5031976;28;21171;-71
2021/12/25 09:02:11;;;;;;;9.83;5.73;;;10.00;98.30;;;;;;5043135;28;20501;-70
2021/12/25 09:04:38;;;;;;;10.53;6.30;;;10.10;98.20;;;;;;5020270;28;20454;-70
2021/12/25 09:07:05;;;;;;;11.47;6.03;;;10.10;97.90;;;;;;5036238;28;20426;-71
2021/12/25 09:09:31;;;;;;;10.87;6.30;;;10.00;97.40;;;;;;5039805;28;20630;-72
2021/12/25 09:11:57;;;;;;;8.80;5.47;;;10.00;97.10;;;;;;5035534;28;20846;-71
2021/12/25 09:14:23;;;;;;;8.83;6.00;;;10.00;96.90;;;;;;5038730;28;20205;-72
2021/12/25 09:16:48;;;;;;;9.63;5.03;;;9.90;96.90;;;;;;5040415;28;20196;-71
2021/12/25 09:19:14;;;;;;;9.23;5.43;;;9.80;96.70;;;;;;5037587;28;20190;-72
2021/12/25 09:21:40;;;;;;;11.93;5.20;;;9.80;96.70;;;;;;5047078;28;20860;-70
2021/12/25 09:24:06;;;;;;;9.20;4.47;;;9.70;96.90;;;;;;5034013;28;20422;-72
2021/12/25 09:26:32;;;;;;;6.43;4.50;;;9.70;97.10;;;;;;5021260;28;20481;-72
2021/12/25 09:28:58;;;;;;;7.67;4.40;;;9.70;97.10;;;;;;5035479;28;20188;-71
2021/12/25 09:31:24;;;;;;;11.50;5.40;;;9.70;97.20;;;;;;5037182;28;20294;-73
2021/12/25 09:33:52;;;;;;;6.40;4.23;;;9.70;97.20;;;;;;5030666;28;20885;-72
2021/12/25 09:36:19;;;;;;;9.20;5.30;;;9.70;97.40;;;;;;5037782;28;20648;-72
2021/12/25 09:38:45;;;;;;;6.60;4.77;;;9.60;97.40;;;;;;5025363;28;20458;-72
2021/12/25 09:41:12;;;;;;;10.40;5.80;;;9.70;97.60;;;;;;5035122;28;20470;-73
2021/12/25 09:43:39;;;;;;;9.83;4.83;;;9.70;97.80;;;;;;5018042;28;20441;-71
2021/12/25 09:46:05;;;;;;;7.07;4.77;;;9.70;97.80;;;;;;5030994;28;20431;-72
2021/12/25 09:48:33;;;;;;;9.50;4.70;;;9.90;97.90;;;;;;5017752;28;20440;-72
2021/12/25 09:50:59;;;;;;;7.17;4.13;;;9.90;97.90;;;;;;5032193;28;20450;-72
2021/12/25 09:53:27;;;;;;;6.53;4.00;;;10.00;97.70;;;;;;5024964;28;20436;-72
2021/12/25 09:55:53;;;;;;;7.07;4.23;;;10.00;97.20;;;;;;5038430;28;20467;-73
2021/12/25 09:58:20;;;;;;;8.23;4.27;;;9.90;97.10;;;;;;5029125;28;20429;-72
2021/12/25 10:00:48;;;;;;;7.77;4.63;;;10.00;97.00;;;;;;5042424;28;20473;-72
2021/12/25 10:03:15;;;;;;;6.00;3.97;;;10.00;97.00;;;;;;5025355;28;20440;-73
2021/12/25 10:05:44;;;;;;;7.37;3.83;;;10.00;96.90;;;;;;5038266;28;20431;-72
2021/12/25 10:08:12;;;;;;;7.40;3.33;;;10.10;96.80;;;;;;5034101;28;20427;-72
2021/12/25 10:10:59;;;;;;;5.27;3.60;;;10.20;96.70;;;;;;5042756;28;20554;-73
2021/12/25 10:13:29;;;;;;;5.93;3.13;;;10.20;96.40;;;;;;5034718;28;20464;-73
2021/12/25 10:16:01;;;;;;;6.87;3.87;;;10.30;96.00;;;;;;5033878;28;20475;-73
2021/12/25 10:18:35;;;;;;;5.87;3.10;;;10.30;95.90;;;;;;5039368;28;20435;-73
2021/12/25 10:21:23;;;;;;;8.37;3.50;;;10.40;95.80;;;;;;5035794;28;20495;-74
2021/12/25 10:24:17;;;;;;;6.07;3.23;;;10.40;95.70;;;;;;5041753;28;21503;-74
2021/12/25 10:26:46;;;;;;;8.40;4.00;;;10.50;95.30;;;;;;5046264;28;20521;-73
2021/12/25 10:29:28;;;;;;;4.43;2.70;;;10.50;94.80;;;;;;5038566;28;20433;-72
2021/12/25 10:31:58;;;;;;;4.27;2.90;;;10.40;94.50;;;;;;5035162;28;20465;-73
2021/12/25 10:34:27;;;;;;;7.17;3.90;;;10.40;94.80;;;;;;5022680;28;20839;-73
2021/12/25 10:36:54;;;;;;;5.73;2.47;;;10.50;94.80;;;;;;5047069;28;20450;-74
2021/12/25 10:39:23;;;;;;;4.47;2.77;;;10.40;94.60;;;;;;5048059;28;20442;-74
2021/12/25 10:42:19;;;;;;;5.17;3.23;;;10.50;94.70;;;;;;5050766;28;20510;-73
2021/12/25 10:44:52;;;;;;;13.63;6.57;;;10.60;94.60;;;;;;5040393;28;20460;-73
2021/12/25 10:47:27;;;;;;;5.83;3.07;;;10.70;94.30;;;;;;5040254;28;20937;-73
2021/12/25 10:49:54;;;;;;;6.90;3.50;;;10.70;94.10;;;;;;5044823;28;20809;-74
2021/12/25 10:52:24;;;;;;;4.57;2.40;;;10.70;93.80;;;;;;5038890;28;20455;-73
2021/12/25 10:54:53;;;;;;;3.40;2.00;;;10.70;93.30;;;;;;5039711;28;20462;-73
2021/12/25 10:57:39;;;;;;;3.00;2.00;;;10.80;93.40;;;;;;5029892;28;20545;-74
2021/12/25 11:00:13;;;;;;;3.33;1.70;;;10.90;93.50;;;;;;5043451;28;20426;-74
2021/12/25 11:02:46;;;;;;;3.37;1.60;;;11.10;93.20;;;;;;5040319;28;20414;-74
2021/12/25 11:05:20;;;;;;;4.07;2.67;;;11.10;92.80;;;;;;5040214;28;20895;-74
2021/12/25 11:07:47;;;;;;;2.53;1.87;;;11.20;92.80;;;;;;5037999;28;20440;-74
2021/12/25 11:10:17;;;;;;;2.97;1.97;;;11.40;92.70;;;;;;5043312;28;20466;-73
2021/12/25 11:12:43;;;;;;;4.00;2.23;;;11.60;92.30;;;;;;5023187;28;20522;-73
2021/12/25 11:15:19;;;;;;;2.53;1.80;;;11.70;91.70;;;;;;5027537;28;20557;-73
2021/12/25 11:17:52;;;;;;;3.73;2.00;;;11.80;90.80;;;;;;5038968;28;20424;-73
2021/12/25 11:20:30;;;;;;;2.20;1.67;;;11.80;90.50;;;;;;5037334;28;20435;-74
2021/12/25 11:22:58;;;;;;;4.13;2.20;;;11.90;90.10;;;;;;5026068;28;20477;-73
2021/12/25 11:25:29;;;;;;;8.23;2.47;;;12.00;90.00;;;;;;5031734;28;20937;-74
2021/12/25 11:27:55;;;;;;;2.77;1.60;;;12.00;90.10;;;;;;5006784;28;20439;-74
2021/12/25 11:30:25;;;;;;;4.20;1.87;;;12.00;89.90;;;;;;5041903;28;21022;-74
2021/12/25 11:32:52;;;;;;;2.40;1.77;;;12.00;89.90;;;;;;5044729;28;20777;-74
2021/12/25 11:35:19;;;;;;;2.60;1.70;;;11.90;89.30;;;;;;5026896;28;20491;-74
2021/12/25 11:37:47;;;;;;;1.93;1.63;;;11.90;89.60;;;;;;5035736;28;20908;-73
2021/12/25 11:40:14;;;;;;;2.57;1.43;;;11.90;88.90;;;;;;5021483;28;20428;-72
2021/12/25 11:42:46;;;;;;;3.13;2.10;;;11.90;88.60;;;;;;5047691;28;20426;-73
2021/12/25 11:45:14;;;;;;;4.67;2.00;;;11.90;88.30;;;;;;5033777;28;20471;-73
2021/12/25 11:47:53;;;;;;;2.53;1.77;;;11.70;88.60;;;;;;5049980;28;20426;-71
2021/12/25 11:50:24;;;;;;;1.73;1.20;;;11.60;88.90;;;;;;5030884;28;20462;-74
2021/12/25 11:53:08;;;;;;;2.90;1.80;;;11.70;88.90;;;;;;5042131;28;20438;-74
2021/12/25 11:58:38;;;;;;;2.33;1.50;;;11.70;89.00;;;;;;5038520;28;20508;-74
2021/12/25 12:01:24;;;;;;;2.00;1.20;;;11.60;89.00;;;;;;5039251;28;20446;-73
2021/12/25 12:03:54;;;;;;;2.10;1.43;;;11.40;88.70;;;;;;5037991;28;20419;-73
2021/12/25 12:06:40;;;;;;;2.40;1.60;;;11.30;89.30;;;;;;5043196;28;20455;-72
2021/12/25 12:09:09;;;;;;;3.47;1.90;;;11.30;89.70;;;;;;5049694;28;20419;-74
2021/12/25 12:11:40;;;;;;;2.57;1.47;;;11.30;90.30;;;;;;5015764;28;20449;-73
2021/12/25 12:14:25;;;;;;;1.53;1.47;;;11.30;90.50;;;;;;5052163;28;20465;-73
2021/12/25 12:16:55;;;;;;;2.97;1.60;;;11.20;90.10;;;;;;5056986;28;20430;-73
2021/12/25 12:19:37;;;;;;;3.63;1.90;;;11.20;90.10;;;;;;5040719;28;20476;-73
2021/12/25 12:22:56;;;;;;;1.90;1.50;;;11.20;90.00;;;;;;5025906;28;20458;-73
2021/12/25 12:27:37;;;;;;;2.53;1.70;;;11.20;90.20;;;;;;5040245;28;20428;-74
2021/12/25 12:30:06;;;;;;;2.80;2.03;;;11.20;90.20;;;;;;5037943;28;20474;-73
2021/12/25 12:32:43;;;;;;;2.50;1.73;;;11.20;90.50;;;;;;5030155;28;20441;-73
2021/12/25 12:35:38;;;;;;;2.33;1.80;;;11.30;90.50;;;;;;5039407;28;20464;-74
2021/12/25 12:38:48;;;;;;;6.10;2.17;;;11.20;90.20;;;;;;5003100;28;20431;-73
2021/12/25 12:41:42;;;;;;;2.43;1.77;;;11.10;90.40;;;;;;5007129;28;20454;-75
2021/12/25 12:44:30;;;;;;;9.77;1.90;;;11.00;90.80;;;;;;5026791;28;20447;-73
2021/12/25 12:46:59;;;;;;;2.97;1.90;;;11.00;90.90;;;;;;5014798;28;20442;-72
2021/12/25 12:49:26;;;;;;;2.17;1.63;;;11.00;90.90;;;;;;5022543;28;20431;-74
2021/12/25 12:52:27;;;;;;;2.20;1.70;;;11.10;91.00;;;;;;5027205;28;20435;-73
2021/12/25 12:55:06;;;;;;;2.50;1.50;;;11.10;91.00;;;;;;5036462;28;20474;-72
2021/12/25 12:57:37;;;;;;;3.20;2.23;;;11.10;90.70;;;;;;5041398;28;20431;-72
2021/12/25 13:00:06;;;;;;;5.00;1.77;;;11.20;90.80;;;;;;5033169;28;20431;-75
2021/12/25 13:02:43;;;;;;;3.10;2.13;;;11.20;90.80;;;;;;5024855;28;20450;-74
2021/12/25 13:05:10;;;;;;;2.50;1.70;;;11.20;90.50;;;;;;5028290;28;20481;-74
2021/12/25 13:07:39;;;;;;;3.47;2.10;;;11.20;90.50;;;;;;5044184;28;20427;-74
2021/12/25 13:10:25;;;;;;;5.90;2.50;;;11.20;90.90;;;;;;5022772;28;20438;-73
2021/12/25 13:12:57;;;;;;;4.37;2.47;;;11.10;90.90;;;;;;5030463;28;20476;-75
2021/12/25 13:15:27;;;;;;;3.57;2.20;;;11.10;91.00;;;;;;5035691;28;20470;-73
2021/12/25 13:17:58;;;;;;;2.80;2.03;;;11.00;91.10;;;;;;5042251;28;20430;-73
2021/12/25 13:20:43;;;;;;;3.97;2.07;;;11.00;91.30;;;;;;5033954;28;20596;-75
2021/12/25 13:23:16;;;;;;;4.60;2.60;;;11.00;91.30;;;;;;5031742;28;20427;-73
2021/12/25 13:25:51;;;;;;;3.23;2.03;;;11.00;91.40;;;;;;5036281;28;20833;-72
2021/12/25 13:28:18;;;;;;;4.13;2.47;;;11.00;91.30;;;;;;5045479;28;20430;-71
2021/12/25 13:30:53;;;;;;;4.07;2.57;;;10.90;91.40;;;;;;5045802;28;20457;-74
2021/12/25 13:33:22;;;;;;;8.20;2.83;;;10.70;91.90;;;;;;5042269;28;20458;-72
2021/12/25 13:36:10;;;;;;;4.57;2.60;;;10.60;92.50;;;;;;5044689;28;20510;-74
2021/12/25 13:38:46;;;;;;;4.63;2.63;;;10.50;93.40;;;;;;5034475;28;20429;-75
2021/12/25 13:41:12;;;;;;;3.10;2.30;;;10.30;93.70;;;;;;5042932;28;20454;-73
2021/12/25 13:43:38;;;;;;;4.90;3.13;;;10.30;93.90;;;;;;5045748;28;20421;-71
2021/12/25 13:46:04;;;;;;;5.60;3.03;;;10.20;94.20;;;;;;5041000;28;20434;-74
2021/12/25 13:48:40;;;;;;;5.03;3.33;;;10.20;94.60;;;;;;5026550;28;20266;-73
2021/12/25 13:51:06;;;;;;;6.63;4.00;;;10.20;94.70;;;;;;5040686;28;20446;-72
2021/12/25 13:53:32;;;;;;;5.67;3.43;;;10.20;94.50;;;;;;5032871;28;20444;-72
2021/12/25 13:56:07;;;;;;;5.50;3.10;;;10.20;94.60;;;;;;5055829;28;20462;-74
2021/12/25 13:58:32;;;;;;;5.00;3.07;;;10.20;94.80;;;;;;5039231;28;20433;-74
2021/12/25 14:00:58;;;;;;;5.93;3.07;;;10.10;95.00;;;;;;5032227;28;20455;-73
2021/12/25 14:03:26;;;;;;;5.67;2.97;;;10.20;95.10;;;;;;5020536;28;20200;-72
2021/12/25 14:05:53;;;;;;;4.00;2.87;;;10.20;95.10;;;;;;5022286;28;20298;-72
2021/12/25 14:08:24;;;;;;;4.73;3.17;;;10.20;94.90;;;;;;5038515;28;20445;-74
2021/12/25 14:10:51;;;;;;;6.33;3.50;;;10.20;94.80;;;;;;5035497;28;20475;-71
2021/12/25 14:13:19;;;;;;;7.50;3.40;;;10.20;95.00;;;;;;5034190;28;20430;-73
2021/12/25 14:15:51;;;;;;;7.13;3.90;;;10.10;95.10;;;;;;5041855;28;20620;-73
2021/12/25 14:18:19;;;;;;;7.67;4.50;;;10.10;95.40;;;;;;5025467;28;20465;-73